sensor_id;sensor_type;location;lat;lon;timestamp;P1;durP1;ratioP1;P2;durP2;ratioP2
44446;SDS011;30152;52.066;5.358;2024-02-21T08:42:48;27.60;;;14.82;;
44446;SDS011;30152;52.066;5.358;2024-02-21T08:45:14;29.08;;;14.52;;
44446;SDS011;30152;52.066;5.358;2024-02-21T08:47:40;28.45;;;14.35;;
44446;SDS011;30152;52.066;5.358;2024-02-21T08:50:06;31.55;;;14.50;;
44446;SDS011;30152;52.066;5.358;2024-02-21T08:52:34;27.42;;;14.27;;
44446;SDS011;30152;52.066;5.358;2024-02-21T08:55:00;28.17;;;13.48;;
44446;SDS011;30152;52.066;5.358;2024-02-21T08:57:26;28.17;;;13.60;;
44446;SDS011;30152;52.066;5.358;2024-02-21T08:59:52;27.77;;;12.65;;
44446;SDS011;30152;52.066;5.358;2024-02-21T09:02:18;26.90;;;12.63;;
44446;SDS011;30152;52.066;5.358;2024-02-21T09:04:44;31.73;;;12.77;;
44446;SDS011;30152;52.066;5.358;2024-02-21T09:07:10;27.10;;;12.55;;
44446;SDS011;30152;52.066;5.358;2024-02-21T09:09:36;26.17;;;12.48;;
44446;SDS011;30152;52.066;5.358;2024-02-21T09:12:04;25.80;;;11.70;;
44446;SDS011;30152;52.066;5.358;2024-02-21T09:14:33;24.02;;;12.02;;
44446;SDS011;30152;52.066;5.358;2024-02-21T09:16:59;23.40;;;10.80;;
44446;SDS011;30152;52.066;5.358;2024-02-21T09:19:25;24.05;;;12.05;;
44446;SDS011;30152;52.066;5.358;2024-02-21T09:21:50;25.53;;;11.20;;
44446;SDS011;30152;52.066;5.358;2024-02-21T09:24:17;26.05;;;11.77;;
44446;SDS011;30152;52.066;5.358;2024-02-21T09:26:42;21.98;;;10.88;;
44446;SDS011;30152;52.066;5.358;2024-02-21T09:29:08;23.73;;;11.07;;
44446;SDS011;30152;52.066;5.358;2024-02-21T09:31:34;23.52;;;10.98;;
44446;SDS011;30152;52.066;5.358;2024-02-21T09:34:01;23.88;;;11.05;;
44446;SDS011;30152;52.066;5.358;2024-02-21T09:36:27;21.95;;;10.73;;
44446;SDS011;30152;52.066;5.358;2024-02-21T09:38:53;23.83;;;10.68;;
44446;SDS011;30152;52.066;5.358;2024-02-21T09:41:24;21.20;;;10.20;;
44446;SDS011;30152;52.066;5.358;2024-02-21T09:43:51;18.45;;;10.18;;
44446;SDS011;30152;52.066;5.358;2024-02-21T09:46:18;22.40;;;10.48;;
44446;SDS011;30152;52.066;5.358;2024-02-21T09:51:52;20.83;;;9.60;;
44446;SDS011;30152;52.066;5.358;2024-02-21T09:54:19;22.08;;;9.30;;
44446;SDS011;30152;52.066;5.358;2024-02-21T09:56:46;21.15;;;9.48;;
44446;SDS011;30152;52.066;5.358;2024-02-21T09:59:12;17.87;;;9.03;;
44446;SDS011;30152;52.066;5.358;2024-02-21T10:01:42;19.30;;;8.75;;
44446;SDS011;30152;52.066;5.358;2024-02-21T10:04:09;20.55;;;9.10;;
44446;SDS011;30152;52.066;5.358;2024-02-21T10:06:35;20.90;;;9.70;;
44446;SDS011;30152;52.066;5.358;2024-02-21T10:09:02;17.67;;;9.10;;
44446;SDS011;30152;52.066;5.358;2024-02-21T10:11:28;21.23;;;8.75;;
44446;SDS011;30152;52.066;5.358;2024-02-21T10:14:05;17.83;;;8.32;;
44446;SDS011;30152;52.066;5.358;2024-02-21T10:16:31;16.88;;;8.07;;
44446;SDS011;30152;52.066;5.358;2024-02-21T10:18:58;15.98;;;8.10;;
44446;SDS011;30152;52.066;5.358;2024-02-21T10:21:24;19.47;;;8.37;;
44446;SDS011;30152;52.066;5.358;2024-02-21T10:23:50;16.33;;;7.47;;
44446;SDS011;30152;52.066;5.358;2024-02-21T10:26:19;16.00;;;7.60;;
44446;SDS011;30152;52.066;5.358;2024-02-21T10:28:45;17.33;;;7.77;;
44446;SDS011;30152;52.066;5.358;2024-02-21T10:31:25;14.60;;;7.55;;
44446;SDS011;30152;52.066;5.358;2024-02-21T10:33:55;14.82;;;7.50;;
44446;SDS011;30152;52.066;5.358;2024-02-21T10:36:24;14.53;;;6.63;;
44446;SDS011;30152;52.066;5.358;2024-02-21T10:38:51;14.33;;;7.33;;
44446;SDS011;30152;52.066;5.358;2024-02-21T10:41:19;14.73;;;6.80;;
44446;SDS011;30152;52.066;5.358;2024-02-21T10:43:46;13.93;;;6.90;;
44446;SDS011;30152;52.066;5.358;2024-02-21T10:46:14;12.88;;;6.32;;
44446;SDS011;30152;52.066;5.358;2024-02-21T10:48:44;13.10;;;5.82;;
44446;SDS011;30152;52.066;5.358;2024-02-21T10:56:22;14.25;;;6.93;;
44446;SDS011;30152;52.066;5.358;2024-02-21T10:58:49;13.40;;;7.00;;
44446;SDS011;30152;52.066;5.358;2024-02-21T11:01:15;13.73;;;6.63;;
44446;SDS011;30152;52.066;5.358;2024-02-21T11:03:43;13.30;;;7.17;;
44446;SDS011;30152;52.066;5.358;2024-02-21T11:06:10;12.60;;;7.38;;
44446;SDS011;30152;52.066;5.358;2024-02-21T11:08:37;13.60;;;7.68;;
44446;SDS011;30152;52.066;5.358;2024-02-21T11:11:04;13.93;;;7.68;;
44446;SDS011;30152;52.066;5.358;2024-02-21T11:13:37;15.00;;;7.78;;
44446;SDS011;30152;52.066;5.358;2024-02-21T11:16:21;13.48;;;8.30;;
44446;SDS011;30152;52.066;5.358;2024-02-21T11:18:48;17.13;;;8.98;;
44446;SDS011;30152;52.066;5.358;2024-02-21T11:21:14;13.98;;;7.93;;
44446;SDS011;30152;52.066;5.358;2024-02-21T11:23:40;16.48;;;9.00;;
44446;SDS011;30152;52.066;5.358;2024-02-21T11:26:07;16.80;;;8.65;;
44446;SDS011;30152;52.066;5.358;2024-02-21T11:28:33;13.50;;;8.23;;
44446;SDS011;30152;52.066;5.358;2024-02-21T11:31:06;14.43;;;8.18;;
44446;SDS011;30152;52.066;5.358;2024-02-21T11:33:33;15.48;;;8.35;;
44446;SDS011;30152;52.066;5.358;2024-02-21T11:35:59;14.98;;;8.68;;
44446;SDS011;30152;52.066;5.358;2024-02-21T11:38:24;18.33;;;9.30;;
44446;SDS011;30152;52.066;5.358;2024-02-21T11:40:50;17.70;;;9.30;;
44446;SDS011;30152;52.066;5.358;2024-02-21T11:43:16;18.55;;;8.75;;
44446;SDS011;30152;52.066;5.358;2024-02-21T11:45:42;14.65;;;8.73;;
44446;SDS011;30152;52.066;5.358;2024-02-21T11:48:08;18.67;;;9.60;;
44446;SDS011;30152;52.066;5.358;2024-02-21T11:50:34;17.55;;;9.38;;
44446;SDS011;30152;52.066;5.358;2024-02-21T11:53:01;19.00;;;9.60;;
44446;SDS011;30152;52.066;5.358;2024-02-21T11:55:28;16.85;;;9.50;;
44446;SDS011;30152;52.066;5.358;2024-02-21T11:57:54;15.60;;;9.70;;
44446;SDS011;30152;52.066;5.358;2024-02-21T12:00:20;18.92;;;9.18;;
44446;SDS011;30152;52.066;5.358;2024-02-21T12:02:46;16.90;;;9.45;;
44446;SDS011;30152;52.066;5.358;2024-02-21T12:05:12;16.67;;;9.27;;
44446;SDS011;30152;52.066;5.358;2024-02-21T12:07:38;19.17;;;9.13;;
44446;SDS011;30152;52.066;5.358;2024-02-21T12:10:14;18.02;;;8.77;;
44446;SDS011;30152;52.066;5.358;2024-02-21T12:12:40;15.15;;;8.25;;
44446;SDS011;30152;52.066;5.358;2024-02-21T12:15:06;15.35;;;8.20;;
44446;SDS011;30152;52.066;5.358;2024-02-21T12:17:33;12.07;;;7.22;;
44446;SDS011;30152;52.066;5.358;2024-02-21T12:20:00;16.27;;;7.77;;
44446;SDS011;30152;52.066;5.358;2024-02-21T12:22:26;14.05;;;7.35;;
44446;SDS011;30152;52.066;5.358;2024-02-21T12:24:53;13.52;;;7.25;;
44446;SDS011;30152;52.066;5.358;2024-02-21T12:27:19;13.60;;;7.65;;
44446;SDS011;30152;52.066;5.358;2024-02-21T12:29:47;17.35;;;7.65;;
44446;SDS011;30152;52.066;5.358;2024-02-21T12:32:12;16.15;;;7.35;;
44446;SDS011;30152;52.066;5.358;2024-02-21T12:34:38;15.77;;;7.70;;
44446;SDS011;30152;52.066;5.358;2024-02-21T12:37:04;17.88;;;7.05;;
44446;SDS011;30152;52.066;5.358;2024-02-21T12:39:30;13.90;;;6.93;;
44446;SDS011;30152;52.066;5.358;2024-02-21T12:41:57;13.63;;;7.05;;
44446;SDS011;30152;52.066;5.358;2024-02-21T12:44:22;15.90;;;7.30;;
44446;SDS011;30152;52.066;5.358;2024-02-21T12:46:49;18.30;;;6.97;;
44446;SDS011;30152;52.066;5.358;2024-02-21T12:49:17;14.47;;;7.17;;
44446;SDS011;30152;52.066;5.358;2024-02-21T12:51:43;14.65;;;7.00;;
44446;SDS011;30152;52.066;5.358;2024-02-21T12:54:11;14.27;;;6.55;;
44446;SDS011;30152;52.066;5.358;2024-02-21T12:56:37;14.80;;;6.70;;
44446;SDS011;30152;52.066;5.358;2024-02-21T12:59:03;13.90;;;6.43;;
44446;SDS011;30152;52.066;5.358;2024-02-21T13:01:29;12.60;;;6.20;;
44446;SDS011;30152;52.066;5.358;2024-02-21T13:03:55;11.70;;;5.68;;
44446;SDS011;30152;52.066;5.358;2024-02-21T13:06:22;11.27;;;5.90;;
44446;SDS011;30152;52.066;5.358;2024-02-21T13:08:48;12.80;;;5.70;;
44446;SDS011;30152;52.066;5.358;2024-02-21T13:11:14;14.38;;;5.90;;
44446;SDS011;30152;52.066;5.358;2024-02-21T13:13:40;13.70;;;5.60;;
44446;SDS011;30152;52.066;5.358;2024-02-21T13:16:06;13.70;;;5.50;;
44446;SDS011;30152;52.066;5.358;2024-02-21T13:18:32;12.45;;;5.35;;
44446;SDS011;30152;52.066;5.358;2024-02-21T13:20:57;10.77;;;5.67;;
44446;SDS011;30152;52.066;5.358;2024-02-21T13:23:23;10.75;;;5.32;;
44446;SDS011;30152;52.066;5.358;2024-02-21T13:25:49;13.35;;;5.03;;
44446;SDS011;30152;52.066;5.358;2024-02-21T13:28:15;13.20;;;5.13;;
44446;SDS011;30152;52.066;5.358;2024-02-21T13:30:42;12.35;;;5.35;;
44446;SDS011;30152;52.066;5.358;2024-02-21T13:33:08;12.63;;;5.43;;
44446;SDS011;30152;52.066;5.358;2024-02-21T13:35:35;13.40;;;5.30;;
44446;SDS011;30152;52.066;5.358;2024-02-21T13:38:01;11.93;;;5.13;;
44446;SDS011;30152;52.066;5.358;2024-02-21T13:40:28;13.17;;;5.07;;
44446;SDS011;30152;52.066;5.358;2024-02-21T13:42:54;14.73;;;5.40;;
44446;SDS011;30152;52.066;5.358;2024-02-21T13:45:20;14.17;;;5.73;;
44446;SDS011;30152;52.066;5.358;2024-02-21T13:47:46;14.32;;;5.07;;
44446;SDS011;30152;52.066;5.358;2024-02-21T13:50:13;13.23;;;5.28;;
44446;SDS011;30152;52.066;5.358;2024-02-21T13:52:39;12.27;;;5.00;;
44446;SDS011;30152;52.066;5.358;2024-02-21T13:55:05;15.45;;;5.38;;
44446;SDS011;30152;52.066;5.358;2024-02-21T13:57:33;14.95;;;4.72;;
44446;SDS011;30152;52.066;5.358;2024-02-21T13:59:59;13.93;;;4.40;;
44446;SDS011;30152;52.066;5.358;2024-02-21T14:02:25;16.37;;;5.20;;
44446;SDS011;30152;52.066;5.358;2024-02-21T14:04:51;13.90;;;4.80;;
44446;SDS011;30152;52.066;5.358;2024-02-21T14:07:17;11.93;;;4.60;;
44446;SDS011;30152;52.066;5.358;2024-02-21T14:09:43;16.48;;;5.13;;
44446;SDS011;30152;52.066;5.358;2024-02-21T14:12:09;13.40;;;4.13;;
44446;SDS011;30152;52.066;5.358;2024-02-21T14:14:35;13.32;;;4.68;;
44446;SDS011;30152;52.066;5.358;2024-02-21T14:17:01;14.07;;;4.70;;
44446;SDS011;30152;52.066;5.358;2024-02-21T14:19:29;12.93;;;4.55;;
44446;SDS011;30152;52.066;5.358;2024-02-21T14:21:55;12.98;;;4.65;;
44446;SDS011;30152;52.066;5.358;2024-02-21T14:24:21;11.82;;;4.57;;
44446;SDS011;30152;52.066;5.358;2024-02-21T14:26:47;14.93;;;4.43;;
44446;SDS011;30152;52.066;5.358;2024-02-21T14:29:13;12.00;;;4.10;;
44446;SDS011;30152;52.066;5.358;2024-02-21T14:31:39;13.63;;;4.90;;
44446;SDS011;30152;52.066;5.358;2024-02-21T14:34:05;15.95;;;4.45;;
44446;SDS011;30152;52.066;5.358;2024-02-21T14:36:32;11.15;;;4.13;;
44446;SDS011;30152;52.066;5.358;2024-02-21T14:38:58;13.90;;;4.72;;
44446;SDS011;30152;52.066;5.358;2024-02-21T14:41:24;14.30;;;4.60;;
44446;SDS011;30152;52.066;5.358;2024-02-21T14:43:50;11.83;;;4.30;;
44446;SDS011;30152;52.066;5.358;2024-02-21T14:46:16;11.63;;;4.30;;
44446;SDS011;30152;52.066;5.358;2024-02-21T14:48:42;12.88;;;4.10;;
44446;SDS011;30152;52.066;5.358;2024-02-21T14:51:10;12.15;;;4.20;;
44446;SDS011;30152;52.066;5.358;2024-02-21T14:53:36;10.65;;;4.20;;
44446;SDS011;30152;52.066;5.358;2024-02-21T14:56:02;11.37;;;4.17;;
44446;SDS011;30152;52.066;5.358;2024-02-21T14:58:27;12.05;;;4.43;;
44446;SDS011;30152;52.066;5.358;2024-02-21T15:00:54;12.13;;;4.43;;
44446;SDS011;30152;52.066;5.358;2024-02-21T15:03:20;11.32;;;4.38;;
44446;SDS011;30152;52.066;5.358;2024-02-21T15:05:46;14.95;;;5.07;;
44446;SDS011;30152;52.066;5.358;2024-02-21T15:08:12;14.83;;;4.70;;
44446;SDS011;30152;52.066;5.358;2024-02-21T15:10:41;12.15;;;4.95;;
44446;SDS011;30152;52.066;5.358;2024-02-21T15:13:07;14.90;;;4.93;;
44446;SDS011;30152;52.066;5.358;2024-02-21T15:15:33;16.43;;;5.23;;
44446;SDS011;30152;52.066;5.358;2024-02-21T15:17:59;11.63;;;5.20;;
44446;SDS011;30152;52.066;5.358;2024-02-21T15:20:25;13.45;;;5.15;;
44446;SDS011;30152;52.066;5.358;2024-02-21T15:22:50;12.07;;;5.70;;
44446;SDS011;30152;52.066;5.358;2024-02-21T15:25:17;11.73;;;6.25;;
44446;SDS011;30152;52.066;5.358;2024-02-21T15:27:43;12.88;;;5.93;;
44446;SDS011;30152;52.066;5.358;2024-02-21T15:30:12;13.85;;;6.10;;
44446;SDS011;30152;52.066;5.358;2024-02-21T15:32:39;14.93;;;6.78;;
44446;SDS011;30152;52.066;5.358;2024-02-21T15:35:05;14.52;;;6.50;;
44446;SDS011;30152;52.066;5.358;2024-02-21T15:37:34;19.25;;;6.57;;
44446;SDS011;30152;52.066;5.358;2024-02-21T15:40:00;16.55;;;6.70;;
44446;SDS011;30152;52.066;5.358;2024-02-21T15:42:26;13.77;;;6.10;;
44446;SDS011;30152;52.066;5.358;2024-02-21T15:44:52;14.27;;;6.80;;
44446;SDS011;30152;52.066;5.358;2024-02-21T15:47:18;12.40;;;6.60;;
44446;SDS011;30152;52.066;5.358;2024-02-21T15:49:49;14.07;;;6.72;;
44446;SDS011;30152;52.066;5.358;2024-02-21T15:52:15;14.57;;;6.68;;
44446;SDS011;30152;52.066;5.358;2024-02-21T15:54:40;16.50;;;6.88;;
44446;SDS011;30152;52.066;5.358;2024-02-21T15:57:06;17.33;;;7.03;;
44446;SDS011;30152;52.066;5.358;2024-02-21T15:59:32;16.90;;;6.80;;
44446;SDS011;30152;52.066;5.358;2024-02-21T16:01:58;17.20;;;6.80;;
44446;SDS011;30152;52.066;5.358;2024-02-21T16:04:27;17.60;;;7.05;;
44446;SDS011;30152;52.066;5.358;2024-02-21T16:06:54;13.45;;;7.07;;
44446;SDS011;30152;52.066;5.358;2024-02-21T16:09:20;15.70;;;6.68;;
44446;SDS011;30152;52.066;5.358;2024-02-21T16:11:46;14.43;;;7.00;;
44446;SDS011;30152;52.066;5.358;2024-02-21T16:14:15;13.18;;;6.80;;
44446;SDS011;30152;52.066;5.358;2024-02-21T16:16:41;11.77;;;6.90;;
44446;SDS011;30152;52.066;5.358;2024-02-21T16:19:08;17.23;;;7.28;;
44446;SDS011;30152;52.066;5.358;2024-02-21T16:21:34;15.50;;;7.82;;
44446;SDS011;30152;52.066;5.358;2024-02-21T16:24:00;19.63;;;8.40;;
44446;SDS011;30152;52.066;5.358;2024-02-21T16:26:27;19.92;;;8.45;;
44446;SDS011;30152;52.066;5.358;2024-02-21T16:28:53;20.20;;;8.48;;
44446;SDS011;30152;52.066;5.358;2024-02-21T16:31:19;21.02;;;8.85;;
44446;SDS011;30152;52.066;5.358;2024-02-21T16:33:45;18.37;;;8.70;;
44446;SDS011;30152;52.066;5.358;2024-02-21T16:36:20;15.93;;;7.80;;
44446;SDS011;30152;52.066;5.358;2024-02-21T16:38:47;15.63;;;8.20;;
44446;SDS011;30152;52.066;5.358;2024-02-21T16:41:13;17.70;;;8.52;;
44446;SDS011;30152;52.066;5.358;2024-02-21T16:43:38;17.35;;;8.40;;
44446;SDS011;30152;52.066;5.358;2024-02-21T16:46:04;18.75;;;8.98;;
44446;SDS011;30152;52.066;5.358;2024-02-21T16:48:30;20.17;;;9.38;;
44446;SDS011;30152;52.066;5.358;2024-02-21T16:50:56;16.33;;;8.40;;
44446;SDS011;30152;52.066;5.358;2024-02-21T16:53:22;15.87;;;8.80;;
44446;SDS011;30152;52.066;5.358;2024-02-21T16:55:49;18.23;;;9.07;;
44446;SDS011;30152;52.066;5.358;2024-02-21T16:58:15;15.80;;;8.13;;
44446;SDS011;30152;52.066;5.358;2024-02-21T17:00:41;18.48;;;8.38;;
44446;SDS011;30152;52.066;5.358;2024-02-21T17:03:08;19.48;;;8.63;;
44446;SDS011;30152;52.066;5.358;2024-02-21T17:05:38;15.63;;;8.43;;
44446;SDS011;30152;52.066;5.358;2024-02-21T17:08:04;17.05;;;8.77;;
44446;SDS011;30152;52.066;5.358;2024-02-21T17:10:32;17.83;;;7.90;;
44446;SDS011;30152;52.066;5.358;2024-02-21T17:12:58;17.40;;;8.00;;
44446;SDS011;30152;52.066;5.358;2024-02-21T17:15:23;18.90;;;9.07;;
44446;SDS011;30152;52.066;5.358;2024-02-21T17:17:49;18.90;;;9.15;;
44446;SDS011;30152;52.066;5.358;2024-02-21T17:20:15;19.40;;;9.05;;
44446;SDS011;30152;52.066;5.358;2024-02-21T17:22:41;18.42;;;9.45;;
44446;SDS011;30152;52.066;5.358;2024-02-21T17:25:07;19.10;;;9.10;;
44446;SDS011;30152;52.066;5.358;2024-02-21T17:27:35;18.87;;;8.70;;
44446;SDS011;30152;52.066;5.358;2024-02-21T17:30:02;16.27;;;8.50;;
44446;SDS011;30152;52.066;5.358;2024-02-21T17:32:29;20.13;;;9.02;;
44446;SDS011;30152;52.066;5.358;2024-02-21T17:34:55;20.50;;;9.40;;
44446;SDS011;30152;52.066;5.358;2024-02-21T17:37:21;18.85;;;9.55;;
44446;SDS011;30152;52.066;5.358;2024-02-21T17:39:47;17.65;;;9.23;;
44446;SDS011;30152;52.066;5.358;2024-02-21T17:42:14;19.50;;;9.60;;
44446;SDS011;30152;52.066;5.358;2024-02-21T17:44:40;19.70;;;9.43;;
44446;SDS011;30152;52.066;5.358;2024-02-21T17:47:07;20.73;;;9.50;;
44446;SDS011;30152;52.066;5.358;2024-02-21T17:49:33;19.70;;;10.10;;
44446;SDS011;30152;52.066;5.358;2024-02-21T17:51:59;20.77;;;10.70;;
44446;SDS011;30152;52.066;5.358;2024-02-21T17:54:25;20.00;;;9.67;;
44446;SDS011;30152;52.066;5.358;2024-02-21T17:56:51;22.00;;;9.60;;
44446;SDS011;30152;52.066;5.358;2024-02-21T17:59:17;18.77;;;9.95;;
44446;SDS011;30152;52.066;5.358;2024-02-21T18:01:44;17.67;;;9.60;;
44446;SDS011;30152;52.066;5.358;2024-02-21T18:04:10;18.60;;;10.05;;
44446;SDS011;30152;52.066;5.358;2024-02-21T18:06:36;17.77;;;9.93;;
44446;SDS011;30152;52.066;5.358;2024-02-21T18:09:03;21.00;;;9.93;;
44446;SDS011;30152;52.066;5.358;2024-02-21T18:11:29;15.40;;;9.45;;
44446;SDS011;30152;52.066;5.358;2024-02-21T18:13:55;18.25;;;9.55;;
44446;SDS011;30152;52.066;5.358;2024-02-21T18:16:22;18.90;;;9.45;;
44446;SDS011;30152;52.066;5.358;2024-02-21T18:18:51;17.98;;;9.50;;
44446;SDS011;30152;52.066;5.358;2024-02-21T18:21:17;19.00;;;10.20;;
44446;SDS011;30152;52.066;5.358;2024-02-21T18:23:44;17.47;;;10.23;;
44446;SDS011;30152;52.066;5.358;2024-02-21T18:26:11;19.85;;;10.82;;
44446;SDS011;30152;52.066;5.358;2024-02-21T18:28:37;20.97;;;10.50;;
44446;SDS011;30152;52.066;5.358;2024-02-21T18:31:03;17.43;;;10.47;;
44446;SDS011;30152;52.066;5.358;2024-02-21T18:33:31;19.90;;;10.20;;
44446;SDS011;30152;52.066;5.358;2024-02-21T18:35:57;20.30;;;11.07;;
44446;SDS011;30152;52.066;5.358;2024-02-21T18:38:23;19.23;;;10.73;;
44446;SDS011;30152;52.066;5.358;2024-02-21T18:40:49;21.08;;;11.30;;
44446;SDS011;30152;52.066;5.358;2024-02-21T18:43:15;19.95;;;11.00;;
44446;SDS011;30152;52.066;5.358;2024-02-21T18:45:41;19.40;;;11.25;;
44446;SDS011;30152;52.066;5.358;2024-02-21T18:48:07;19.37;;;10.77;;
44446;SDS011;30152;52.066;5.358;2024-02-21T18:50:34;17.50;;;10.80;;
44446;SDS011;30152;52.066;5.358;2024-02-21T18:53:00;19.57;;;11.03;;
44446;SDS011;30152;52.066;5.358;2024-02-21T18:55:26;17.13;;;10.50;;
44446;SDS011;30152;52.066;5.358;2024-02-21T18:57:52;17.10;;;10.30;;
44446;SDS011;30152;52.066;5.358;2024-02-21T19:00:18;18.43;;;11.13;;
44446;SDS011;30152;52.066;5.358;2024-02-21T19:02:51;17.92;;;10.85;;
44446;SDS011;30152;52.066;5.358;2024-02-21T19:05:17;19.05;;;10.95;;
44446;SDS011;30152;52.066;5.358;2024-02-21T19:07:46;18.33;;;10.82;;
44446;SDS011;30152;52.066;5.358;2024-02-21T19:10:12;16.58;;;11.20;;
44446;SDS011;30152;52.066;5.358;2024-02-21T19:12:39;18.92;;;11.68;;
44446;SDS011;30152;52.066;5.358;2024-02-21T19:15:05;18.53;;;11.03;;
44446;SDS011;30152;52.066;5.358;2024-02-21T19:17:31;19.50;;;10.83;;
44446;SDS011;30152;52.066;5.358;2024-02-21T19:19:57;16.90;;;11.50;;
44446;SDS011;30152;52.066;5.358;2024-02-21T19:22:23;20.92;;;12.25;;
44446;SDS011;30152;52.066;5.358;2024-02-21T19:24:54;17.90;;;11.88;;
44446;SDS011;30152;52.066;5.358;2024-02-21T19:27:20;18.90;;;11.75;;
44446;SDS011;30152;52.066;5.358;2024-02-21T19:29:46;18.35;;;12.63;;
44446;SDS011;30152;52.066;5.358;2024-02-21T19:32:12;20.27;;;13.20;;
44446;SDS011;30152;52.066;5.358;2024-02-21T19:34:38;23.63;;;13.32;;
44446;SDS011;30152;52.066;5.358;2024-02-21T19:37:04;20.80;;;12.57;;
44446;SDS011;30152;52.066;5.358;2024-02-21T19:39:31;19.50;;;12.55;;
44446;SDS011;30152;52.066;5.358;2024-02-21T19:41:57;20.33;;;13.27;;
44446;SDS011;30152;52.066;5.358;2024-02-21T19:44:23;20.92;;;12.65;;
44446;SDS011;30152;52.066;5.358;2024-02-21T19:46:49;21.23;;;13.45;;
44446;SDS011;30152;52.066;5.358;2024-02-21T19:49:15;19.33;;;12.70;;
44446;SDS011;30152;52.066;5.358;2024-02-21T19:51:43;20.08;;;13.00;;
44446;SDS011;30152;52.066;5.358;2024-02-21T19:54:09;21.88;;;13.02;;
44446;SDS011;30152;52.066;5.358;2024-02-21T19:56:38;20.77;;;12.98;;
44446;SDS011;30152;52.066;5.358;2024-02-21T19:59:04;19.10;;;12.70;;
44446;SDS011;30152;52.066;5.358;2024-02-21T20:01:31;21.02;;;13.07;;
44446;SDS011;30152;52.066;5.358;2024-02-21T20:03:57;18.50;;;12.23;;
44446;SDS011;30152;52.066;5.358;2024-02-21T20:06:23;18.20;;;11.87;;
44446;SDS011;30152;52.066;5.358;2024-02-21T20:08:50;20.00;;;13.05;;
44446;SDS011;30152;52.066;5.358;2024-02-21T20:11:18;18.77;;;12.57;;
44446;SDS011;30152;52.066;5.358;2024-02-21T20:13:44;18.30;;;12.00;;
44446;SDS011;30152;52.066;5.358;2024-02-21T20:16:10;18.08;;;12.35;;
44446;SDS011;30152;52.066;5.358;2024-02-21T20:18:37;20.00;;;12.55;;
44446;SDS011;30152;52.066;5.358;2024-02-21T20:21:03;18.38;;;12.63;;
44446;SDS011;30152;52.066;5.358;2024-02-21T20:23:30;22.92;;;13.98;;
44446;SDS011;30152;52.066;5.358;2024-02-21T20:25:58;18.52;;;12.75;;
44446;SDS011;30152;52.066;5.358;2024-02-21T20:28:24;18.57;;;12.43;;
44446;SDS011;30152;52.066;5.358;2024-02-21T20:30:50;18.97;;;12.60;;
44446;SDS011;30152;52.066;5.358;2024-02-21T20:33:16;17.95;;;12.80;;
44446;SDS011;30152;52.066;5.358;2024-02-21T20:35:42;21.13;;;12.60;;
44446;SDS011;30152;52.066;5.358;2024-02-21T20:38:07;19.20;;;12.27;;
44446;SDS011;30152;52.066;5.358;2024-02-21T20:40:33;18.10;;;12.05;;
44446;SDS011;30152;52.066;5.358;2024-02-21T20:42:59;20.40;;;12.73;;
44446;SDS011;30152;52.066;5.358;2024-02-21T20:45:26;17.27;;;12.80;;
44446;SDS011;30152;52.066;5.358;2024-02-21T20:47:52;16.85;;;12.25;;
44446;SDS011;30152;52.066;5.358;2024-02-21T20:50:18;17.50;;;12.50;;
44446;SDS011;30152;52.066;5.358;2024-02-21T20:52:46;16.83;;;12.25;;
44446;SDS011;30152;52.066;5.358;2024-02-21T20:55:12;16.17;;;11.75;;
44446;SDS011;30152;52.066;5.358;2024-02-21T20:57:39;18.58;;;12.18;;
44446;SDS011;30152;52.066;5.358;2024-02-21T21:00:06;16.80;;;11.98;;
44446;SDS011;30152;52.066;5.358;2024-02-21T21:02:32;17.02;;;12.15;;
44446;SDS011;30152;52.066;5.358;2024-02-21T21:04:58;18.45;;;11.90;;
44446;SDS011;30152;52.066;5.358;2024-02-21T21:07:24;16.35;;;11.73;;
44446;SDS011;30152;52.066;5.358;2024-02-21T21:09:50;16.77;;;12.20;;
44446;SDS011;30152;52.066;5.358;2024-02-21T21:12:16;18.15;;;12.57;;
44446;SDS011;30152;52.066;5.358;2024-02-21T21:14:42;16.55;;;12.55;;
44446;SDS011;30152;52.066;5.358;2024-02-21T21:17:08;16.70;;;12.18;;
44446;SDS011;30152;52.066;5.358;2024-02-21T21:19:34;15.90;;;12.10;;
44446;SDS011;30152;52.066;5.358;2024-02-21T21:22:00;17.83;;;12.03;;
44446;SDS011;30152;52.066;5.358;2024-02-21T21:24:25;17.83;;;12.68;;
44446;SDS011;30152;52.066;5.358;2024-02-21T21:26:51;18.50;;;12.88;;
44446;SDS011;30152;52.066;5.358;2024-02-21T21:29:18;16.63;;;11.98;;
44446;SDS011;30152;52.066;5.358;2024-02-21T21:31:44;16.63;;;11.63;;
44446;SDS011;30152;52.066;5.358;2024-02-21T21:34:10;15.40;;;11.65;;
44446;SDS011;30152;52.066;5.358;2024-02-21T21:36:37;16.45;;;12.07;;
44446;SDS011;30152;52.066;5.358;2024-02-21T21:39:03;15.13;;;12.02;;
44446;SDS011;30152;52.066;5.358;2024-02-21T21:41:31;16.87;;;12.43;;
44446;SDS011;30152;52.066;5.358;2024-02-21T21:43:57;16.80;;;12.43;;
44446;SDS011;30152;52.066;5.358;2024-02-21T21:46:23;17.05;;;12.60;;
44446;SDS011;30152;52.066;5.358;2024-02-21T21:48:49;16.55;;;11.75;;
44446;SDS011;30152;52.066;5.358;2024-02-21T21:51:15;16.85;;;12.65;;
44446;SDS011;30152;52.066;5.358;2024-02-21T21:53:41;17.02;;;12.88;;
44446;SDS011;30152;52.066;5.358;2024-02-21T21:56:09;17.27;;;12.07;;
44446;SDS011;30152;52.066;5.358;2024-02-21T21:58:35;15.45;;;11.52;;
44446;SDS011;30152;52.066;5.358;2024-02-21T22:01:01;15.93;;;12.38;;
44446;SDS011;30152;52.066;5.358;2024-02-21T22:03:27;17.70;;;12.73;;
44446;SDS011;30152;52.066;5.358;2024-02-21T22:05:53;17.80;;;12.30;;
44446;SDS011;30152;52.066;5.358;2024-02-21T22:08:19;16.10;;;12.02;;
44446;SDS011;30152;52.066;5.358;2024-02-21T22:10:45;16.33;;;12.55;;
44446;SDS011;30152;52.066;5.358;2024-02-21T22:13:15;18.25;;;13.40;;
44446;SDS011;30152;52.066;5.358;2024-02-21T22:15:41;18.10;;;13.63;;
44446;SDS011;30152;52.066;5.358;2024-02-21T22:18:07;17.57;;;12.90;;
44446;SDS011;30152;52.066;5.358;2024-02-21T22:20:34;19.45;;;14.45;;
44446;SDS011;30152;52.066;5.358;2024-02-21T22:23:01;19.10;;;14.50;;
44446;SDS011;30152;52.066;5.358;2024-02-21T22:25:27;19.23;;;14.02;;
44446;SDS011;30152;52.066;5.358;2024-02-21T22:27:53;18.92;;;14.27;;
44446;SDS011;30152;52.066;5.358;2024-02-21T22:30:19;20.05;;;14.50;;
44446;SDS011;30152;52.066;5.358;2024-02-21T22:32:44;19.80;;;14.40;;
